Map

Track Data

SID SEASON NUMBER BASIN SUBBASIN NAME ISO_TIME NATURE LAT LON WMO_WIND WMO_PRES WMO_AGENCY TRACK_TYPE DIST2LAND LANDFALL IFLAG USA_AGENCY USA_ATCF_ID USA_LAT USA_LON USA_RECORD USA_STATUS USA_WIND USA_PRES USA_SSHS USA_R34_NE USA_R34_SE USA_R34_SW USA_R34_NW USA_R50_NE USA_R50_SE USA_R50_SW USA_R50_NW USA_R64_NE USA_R64_SE USA_R64_SW USA_R64_NW USA_POCI USA_ROCI USA_RMW USA_EYE TOKYO_LAT TOKYO_LON TOKYO_GRADE TOKYO_WIND TOKYO_PRES TOKYO_R50_DIR TOKYO_R50_LONG TOKYO_R50_SHORT TOKYO_R30_DIR TOKYO_R30_LONG TOKYO_R30_SHORT TOKYO_LAND CMA_LAT CMA_LON CMA_CAT CMA_WIND CMA_PRES HKO_LAT HKO_LON HKO_CAT HKO_WIND HKO_PRES NEWDELHI_LAT NEWDELHI_LON NEWDELHI_GRADE NEWDELHI_WIND NEWDELHI_PRES NEWDELHI_CI NEWDELHI_DP NEWDELHI_POCI REUNION_LAT REUNION_LON REUNION_TYPE REUNION_WIND REUNION_PRES REUNION_TNUM REUNION_CI REUNION_RMW REUNION_R34_NE REUNION_R34_SE REUNION_R34_SW REUNION_R34_NW REUNION_R50_NE REUNION_R50_SE REUNION_R50_SW REUNION_R50_NW REUNION_R64_NE REUNION_R64_SE REUNION_R64_SW REUNION_R64_NW BOM_LAT BOM_LON BOM_TYPE BOM_WIND BOM_PRES BOM_TNUM BOM_CI BOM_RMW BOM_R34_NE BOM_R34_SE BOM_R34_SW BOM_R34_NW BOM_R50_NE BOM_R50_SE BOM_R50_SW BOM_R50_NW BOM_R64_NE BOM_R64_SE BOM_R64_SW BOM_R64_NW BOM_ROCI BOM_POCI BOM_EYE BOM_POS_METHOD BOM_PRES_METHOD NADI_LAT NADI_LON NADI_CAT NADI_WIND NADI_PRES WELLINGTON_LAT WELLINGTON_LON WELLINGTON_WIND WELLINGTON_PRES DS824_LAT DS824_LON DS824_STAGE DS824_WIND DS824_PRES TD9636_LAT TD9636_LON TD9636_STAGE TD9636_WIND TD9636_PRES TD9635_LAT TD9635_LON TD9635_WIND TD9635_PRES TD9635_ROCI NEUMANN_LAT NEUMANN_LON NEUMANN_CLASS NEUMANN_WIND NEUMANN_PRES MLC_LAT MLC_LON MLC_CLASS MLC_WIND MLC_PRES USA_GUST BOM_GUST BOM_GUST_PER REUNION_GUST REUNION_GUST_PER USA_SEAHGT USA_SEARAD_NE USA_SEARAD_SE USA_SEARAD_SW USA_SEARAD_NW STORM_SPEED STORM_DIR
1924288N16277 1924 45 NA CS NOT_NAMED 1924-10-14 00:00:00 TS 15.7000 -83.5000 25 hurdat_atl main 39 39 O_____________ hurdat_atl AL101924 15.7000 -83.5000 TD 25 -1 6 315
1924288N16277 1924 45 NA CS NOT_NAMED 1924-10-14 03:00:00 TS 15.9000 -83.7074 main 46 39 P_____________ AL101924 15.9000 -83.7074 TD 25 -1 6 316
1924288N16277 1924 45 NA CS NOT_NAMED 1924-10-14 06:00:00 TS 16.1000 -83.9000 25 hurdat_atl main 54 54 O_____________ hurdat_atl AL101924 16.1000 -83.9000 TD 25 -1 5 319
1924288N16277 1924 45 NA CS NOT_NAMED 1924-10-14 09:00:00 TS 16.3000 -84.0650 main 59 59 P_____________ AL101924 16.3000 -84.0650 TD 27 -1 5 324
1924288N16277 1924 45 NA CS NOT_NAMED 1924-10-14 12:00:00 TS 16.5000 -84.2000 30 hurdat_atl main 79 79 O_____________ hurdat_atl AL101924 16.5000 -84.2000 TD 30 -1 5 330
1924288N16277 1924 45 NA CS NOT_NAMED 1924-10-14 15:00:00 TS 16.7000 -84.3075 main 99 99 P_____________ AL101924 16.7000 -84.3075 TD 30 -1 4 335
1924288N16277 1924 45 NA CS NOT_NAMED 1924-10-14 18:00:00 TS 16.9000 -84.4000 30 hurdat_atl main 116 116 O_____________ hurdat_atl AL101924 16.9000 -84.4000 TD 30 -1 4 335
1924288N16277 1924 45 NA CS NOT_NAMED 1924-10-14 21:00:00 TS 17.1000 -84.5000 main 135 135 P_____________ AL101924 17.1000 -84.5000 TD 30 -1 4 335
1924288N16277 1924 45 NA CS NOT_NAMED 1924-10-15 00:00:00 TS 17.3000 -84.6000 30 hurdat_atl main 157 157 O_____________ hurdat_atl AL101924 17.3000 -84.6000 TD 30 -1 5 335
1924288N16277 1924 45 NA CS NOT_NAMED 1924-10-15 03:00:00 TS 17.5075 -84.7000 main 179 179 P_____________ AL101924 17.5075 -84.7000 TD 32 -1 4 335
1924288N16277 1924 45 NA CS NOT_NAMED 1924-10-15 06:00:00 TS 17.7000 -84.8000 35 hurdat_atl main 201 201 O_____________ hurdat_atl AL101924 17.7000 -84.8000 TS 35 0 4 332
1924288N16277 1924 45 NA CS NOT_NAMED 1924-10-15 09:00:00 TS 17.8575 -84.9000 main 223 223 P_____________ AL101924 17.8575 -84.9000 TS 37 0 4 328
1924288N16277 1924 45 NA CS NOT_NAMED 1924-10-15 12:00:00 TS 18.0000 -85.0000 40 hurdat_atl main 235 235 O_____________ hurdat_atl AL101924 18.0000 -85.0000 TS 40 0 3 328
1924288N16277 1924 45 NA CS NOT_NAMED 1924-10-15 15:00:00 TS 18.1500 -85.0925 main 246 246 P_____________ AL101924 18.1500 -85.0925 TS 45 0 4 328
1924288N16277 1924 45 NA CS NOT_NAMED 1924-10-15 18:00:00 TS 18.3000 -85.2000 50 hurdat_atl main 261 248 O_____________ hurdat_atl AL101924 18.3000 -85.2000 TS 50 0 4 321
1924288N16277 1924 45 NA CS NOT_NAMED 1924-10-15 21:00:00 TS 18.4500 -85.3425 main 244 220 P_____________ AL101924 18.4500 -85.3425 TS 55 0 4 317
1924288N16277 1924 45 NA CS NOT_NAMED 1924-10-16 00:00:00 TS 18.6000 -85.5000 60 hurdat_atl main 220 204 O_____________ hurdat_atl AL101924 18.6000 -85.5000 TS 60 0 4 317
1924288N16277 1924 45 NA CS NOT_NAMED 1924-10-16 03:00:00 TS 18.7650 -85.6575 main 194 180 P_____________ AL101924 18.7650 -85.6575 TS 65 1 4 317
1924288N16277 1924 45 NA CS NOT_NAMED 1924-10-16 06:00:00 TS 18.9000 -85.8000 70 hurdat_atl main 180 167 O_____________ hurdat_atl AL101924 18.9000 -85.8000 HU 70 1 3 312
1924288N16277 1924 45 NA CS NOT_NAMED 1924-10-16 09:00:00 TS 18.9800 -85.9075 main 167 157 P_____________ AL101924 18.9800 -85.9075 HU 75 1 2 298
1924288N16277 1924 45 NA CS NOT_NAMED 1924-10-16 12:00:00 TS 19.0000 -86.0000 80 hurdat_atl main 157 147 O_____________ hurdat_atl AL101924 19.0000 -86.0000 HU 80 1 2 265
1924288N16277 1924 45 NA CS NOT_NAMED 1924-10-16 15:00:00 TS 18.9650 -86.1000 main 147 140 P_____________ AL101924 18.9650 -86.1000 HU 80 1 2 242
1924288N16277 1924 45 NA CS NOT_NAMED 1924-10-16 18:00:00 TS 18.9000 -86.2000 80 hurdat_atl main 140 130 O_____________ hurdat_atl AL101924 18.9000 -86.2000 HU 80 1 2 241
1924288N16277 1924 45 NA CS NOT_NAMED 1924-10-16 21:00:00 TS 18.8575 -86.3075 main 130 124 P_____________ AL101924 18.8575 -86.3075 HU 80 1 2 242
1924288N16277 1924 45 NA CS NOT_NAMED 1924-10-17 00:00:00 TS 18.8000 -86.4000 80 hurdat_atl main 124 117 O_____________ hurdat_atl AL101924 18.8000 -86.4000 HU 80 1 2 224
1924288N16277 1924 45 NA CS NOT_NAMED 1924-10-17 03:00:00 TS 18.7075 -86.4650 main 117 117 P_____________ AL101924 18.7075 -86.4650 HU 82 1 2 207
1924288N16277 1924 45 NA CS NOT_NAMED 1924-10-17 06:00:00 TS 18.6000 -86.5000 85 hurdat_atl main 120 120 O_____________ hurdat_atl AL101924 18.6000 -86.5000 HU 85 2 2 193
1924288N16277 1924 45 NA CS NOT_NAMED 1924-10-17 09:00:00 TS 18.4925 -86.5150 main 124 124 P_____________ AL101924 18.4925 -86.5150 HU 85 2 2 172
1924288N16277 1924 45 NA CS NOT_NAMED 1924-10-17 12:00:00 TS 18.4000 -86.5000 85 hurdat_atl main 128 128 O_____________ hurdat_atl AL101924 18.4000 -86.5000 HU 85 2 2 165
1924288N16277 1924 45 NA CS NOT_NAMED 1924-10-17 15:00:00 TS 18.3350 -86.4650 main 130 130 P_____________ AL101924 18.3350 -86.4650 HU 85 2 1 137
1924288N16277 1924 45 NA CS NOT_NAMED 1924-10-17 18:00:00 TS 18.3000 -86.4000 85 hurdat_atl main 141 141 O_____________ hurdat_atl AL101924 18.3000 -86.4000 HU 85 2 2 108
1924288N16277 1924 45 NA CS NOT_NAMED 1924-10-17 21:00:00 TS 18.2850 -86.3075 main 151 151 P_____________ AL101924 18.2850 -86.3075 HU 87 2 2 90
1924288N16277 1924 45 NA CS NOT_NAMED 1924-10-18 00:00:00 TS 18.3000 -86.2000 90 hurdat_atl main 161 161 O_____________ hurdat_atl AL101924 18.3000 -86.2000 HU 90 2 2 76
1924288N16277 1924 45 NA CS NOT_NAMED 1924-10-18 03:00:00 TS 18.3350 -86.1000 main 171 167 P_____________ AL101924 18.3350 -86.1000 HU 92 2 2 62
1924288N16277 1924 45 NA CS NOT_NAMED 1924-10-18 06:00:00 TS 18.4000 -86.0000 95 hurdat_atl main 177 177 O_____________ hurdat_atl AL101924 18.4000 -86.0000 HU 95 2 2 55
1924288N16277 1924 45 NA CS NOT_NAMED 1924-10-18 09:00:00 TS 18.4700 -85.9000 main 184 184 P_____________ AL101924 18.4700 -85.9000 HU 97 3 3 44
1924288N16277 1924 45 NA CS NOT_NAMED 1924-10-18 12:00:00 TS 18.6000 -85.8000 100 hurdat_atl main 191 187 O_____________ hurdat_atl AL101924 18.6000 -85.8000 HU 100 3 4 27
1924288N16277 1924 45 NA CS NOT_NAMED 1924-10-18 15:00:00 TS 18.8200 -85.7075 main 194 187 P_____________ AL101924 18.8200 -85.7075 HU 105 3 5 21
1924288N16277 1924 45 NA CS NOT_NAMED 1924-10-18 18:00:00 TS 19.1000 -85.6000 110 hurdat_atl main 194 191 O_____________ hurdat_atl AL101924 19.1000 -85.6000 HU 110 3 6 23
1924288N16277 1924 45 NA CS NOT_NAMED 1924-10-18 21:00:00 TS 19.3850 -85.4575 main 199 199 P_____________ AL101924 19.3850 -85.4575 HU 115 4 7 25
1924288N16277 1924 45 NA CS NOT_NAMED 1924-10-19 00:00:00 TS 19.7000 -85.3000 120 hurdat_atl main 207 198 O_____________ hurdat_atl AL101924 19.7000 -85.3000 HU 120 4 7 24
1924288N16277 1924 45 NA CS NOT_NAMED 1924-10-19 03:00:00 TS 20.0275 -85.1499 main 203 157 P_____________ AL101924 20.0275 -85.1499 HU 125 4 8 22
1924288N16277 1924 45 NA CS NOT_NAMED 1924-10-19 06:00:00 TS 20.4000 -85.0000 130 hurdat_atl main 157 112 O_____________ hurdat_atl AL101924 20.4000 -85.0000 HU 130 4 8 20
1924288N16277 1924 45 NA CS NOT_NAMED 1924-10-19 09:00:00 TS 20.8200 -84.8499 main 111 56 P_____________ AL101924 20.8200 -84.8499 HU 137 5 9 17
1924288N16277 1924 45 NA CS NOT_NAMED 1924-10-19 12:00:00 TS 21.3000 -84.7000 145 hurdat_atl main 56 10 O_____________ hurdat_atl AL101924 21.3000 -84.7000 HU 145 5 11 15
1924288N16277 1924 45 NA CS NOT_NAMED 1924-10-19 15:00:00 TS 21.8425 -84.5574 main 10 0 P_____________ AL101924 21.8425 -84.5574 HU 145 5 11 14
1924288N16277 1924 45 NA GM NOT_NAMED 1924-10-19 18:00:00 TS 22.4000 -84.4000 145 910 hurdat_atl main 10 10 O_____________ hurdat_atl AL101924 22.4000 -84.4000 HU 145 910 5 11 17
1924288N16277 1924 45 NA GM NOT_NAMED 1924-10-19 21:00:00 TS 22.9075 -84.2148 main 30 30 P_____________ AL101924 22.9075 -84.2148 HU 137 5 11 20
1924288N16277 1924 45 NA GM NOT_NAMED 1924-10-20 00:00:00 TS 23.4000 -84.0000 130 hurdat_atl main 73 73 O_____________ hurdat_atl AL101924 23.4000 -84.0000 HU 130 4 11 23
1924288N16277 1924 45 NA GM NOT_NAMED 1924-10-20 03:00:00 TS 23.9150 -83.7575 main 118 115 P_____________ AL101924 23.9150 -83.7575 HU 122 4 11 25
1924288N16277 1924 45 NA GM NOT_NAMED 1924-10-20 06:00:00 TS 24.4000 -83.5000 115 hurdat_atl main 167 167 O_____________ hurdat_atl AL101924 24.4000 -83.5000 HU 115 4 10 26
1924288N16277 1924 45 NA GM NOT_NAMED 1924-10-20 09:00:00 TS 24.8524 -83.2500 main 187 151 P_____________ AL101924 24.8524 -83.2500 HU 107 3 9 30
1924288N16277 1924 45 NA GM NOT_NAMED 1924-10-20 12:00:00 TS 25.2000 -83.0000 100 hurdat_atl main 151 123 O_____________ hurdat_atl AL101924 25.2000 -83.0000 HU 100 3 7 40
1924288N16277 1924 45 NA GM NOT_NAMED 1924-10-20 15:00:00 TS 25.3874 -82.7572 main 123 91 P_____________ AL101924 25.3874 -82.7572 HU 95 2 5 56
1924288N16277 1924 45 NA GM NOT_NAMED 1924-10-20 18:00:00 TS 25.5000 -82.5000 90 hurdat_atl main 91 54 O_____________ hurdat_atl AL101924 25.5000 -82.5000 HU 90 2 6 59
1924288N16277 1924 45 NA GM NOT_NAMED 1924-10-20 21:00:00 TS 25.6905 -82.2061 main 54 22 P_____________ AL101924 25.6905 -82.2061 HU 85 2 6 61
1924288N16277 1924 45 NA GM NOT_NAMED 1924-10-21 00:00:00 TS 25.8000 -81.9000 80 975 hurdat_atl main 22 14 O_____________ hurdat_atl AL101924 25.8000 -81.9000 HU 80 975 1 6 73
1924288N16277 1924 45 NA GM NOT_NAMED 1924-10-21 01:00:00 TS 25.8000 -81.8000 80 975 hurdat_atl main 14 11 O_____________ hurdat_atl AL101924 25.8000 -81.8000 L HU 80 975 1 7 86
1924288N16277 1924 45 NA GM NOT_NAMED 1924-10-21 03:00:00 TS 25.8267 -81.5203 main 11 0 P_____________ AL101924 25.8267 -81.5203 HU 75 977 1 9 82
1924288N16277 1924 45 NA NA NOT_NAMED 1924-10-21 06:00:00 TS 25.9000 -81.0000 70 hurdat_atl main 0 0 I_____________ hurdat_atl AL101924 25.9000 -81.0000 HU 70 980 1 9 83
1924288N16277 1924 45 NA NA NOT_NAMED 1924-10-21 09:00:00 TS 25.9366 -80.5667 main 0 0 P_____________ AL101924 25.9366 -80.5667 HU 65 983 1 8 83
1924288N16277 1924 45 NA NA NOT_NAMED 1924-10-21 12:00:00 TS 26.0000 -80.1000 60 986 hurdat_atl main 0 0 O_____________ hurdat_atl AL101924 26.0000 -80.1000 TS 60 986 0 9 79
1924288N16277 1924 45 NA NA NOT_NAMED 1924-10-21 15:00:00 TS 26.1197 -79.5447 main 59 59 P_____________ AL101924 26.1197 -79.5447 TS 60 0 11 74
1924288N16277 1924 45 NA NA NOT_NAMED 1924-10-21 18:00:00 TS 26.3000 -78.9000 60 hurdat_atl main 119 119 O_____________ hurdat_atl AL101924 26.3000 -78.9000 TS 60 0 13 71
1924288N16277 1924 45 NA NA NOT_NAMED 1924-10-21 21:00:00 TS 26.5346 -78.1949 main 156 156 P_____________ AL101924 26.5346 -78.1949 TS 60 0 14 70
1924288N16277 1924 45 NA NA NOT_NAMED 1924-10-22 00:00:00 TS 26.8000 -77.4000 60 hurdat_atl main 199 199 O_____________ hurdat_atl AL101924 26.8000 -77.4000 TS 60 0 16 71
1924288N16277 1924 45 NA NA NOT_NAMED 1924-10-22 03:00:00 TS 27.0344 -76.5441 main 259 259 P_____________ AL101924 27.0344 -76.5441 TS 60 0 17 73
1924288N16277 1924 45 NA NA NOT_NAMED 1924-10-22 06:00:00 TS 27.3000 -75.6000 60 hurdat_atl main 342 342 O_____________ hurdat_atl AL101924 27.3000 -75.6000 TS 60 0 19 71
1924288N16277 1924 45 NA NA NOT_NAMED 1924-10-22 09:00:00 TS 27.6347 -74.5724 main 438 438 P_____________ AL101924 27.6347 -74.5724 TS 57 0 20 69
1924288N16277 1924 45 NA NA NOT_NAMED 1924-10-22 12:00:00 TS 28.0000 -73.5000 55 hurdat_atl main 552 552 O_____________ hurdat_atl AL101924 28.0000 -73.5000 TS 55 0 20 69
1924288N16277 1924 45 NA NA NOT_NAMED 1924-10-22 15:00:00 TS 28.3492 -72.4493 main 660 660 P_____________ AL101924 28.3492 -72.4493 TS 52 0 20 69
1924288N16277 1924 45 NA NA NOT_NAMED 1924-10-22 18:00:00 TS 28.7000 -71.4000 50 hurdat_atl main 767 767 O_____________ hurdat_atl AL101924 28.7000 -71.4000 TS 50 0 20 69
1924288N16277 1924 45 NA NA NOT_NAMED 1924-10-22 21:00:00 TS 29.0492 -70.3493 main 863 854 P_____________ AL101924 29.0492 -70.3493 TS 47 0 20 69
1924288N16277 1924 45 NA NA NOT_NAMED 1924-10-23 00:00:00 TS 29.4000 -69.3000 45 hurdat_atl main 898 898 O_____________ hurdat_atl AL101924 29.4000 -69.3000 TS 45 0 19 69
1924288N16277 1924 45 NA NA NOT_NAMED 1924-10-23 03:00:00 TS 29.7340 -68.2562 main 947 947 P_____________ AL101924 29.7340 -68.2562 TS 42 0 20 69
1924288N16277 1924 45 NA NA NOT_NAMED 1924-10-23 06:00:00 TS 30.1000 -67.2000 40 hurdat_atl main 1000 1000 O_____________ hurdat_atl AL101924 30.1000 -67.2000 TS 40 0 20 67
1924288N16277 1924 45 NA NA NOT_NAMED 1924-10-23 09:00:00 TS 30.5320 -66.1126 main 1053 1047 P_____________ AL101924 30.5320 -66.1126 TS 35 0 21 65
1924288N16277 1924 45 NA NA NOT_NAMED 1924-10-23 12:00:00 ET 31.0000 -65.0000 30 hurdat_atl main 1109 O_____________ hurdat_atl AL101924 31.0000 -65.0000 EX 30 -4 21 64

About IBTrACS Database

This database is a web-friendly format of International Best Track Archive for Climate Stewardship (IBTrACS), a global best track data archive curated by NOAA dating back to 1842.

Updated: 2021-11-26